Terminal Aerodrome Forecast
Issued by NWS

Home | Current Version | Previous Version | Graphics & Text | Print | Product List | Glossary On
Versions: 1 2 3 4 5 6 7 8 9 10 11 12 13 14 15 16
216
FTUS43 KMPX 201726
TAFRNH
TAF
KRNH 201726Z 2018/2118 19013G22KT P6SM SKC
     FM210100 17012G20KT P6SM FEW250 WS020/19050KT
     FM211100 17011G19KT P6SM VCSH OVC070
     FM211300 16012G20KT P6SM -SHRA OVC040
     FM211600 17013G22KT P6SM OVC020=

USA.gov is the U.S. government's official web portal to all federal, state and local government web resources and services.